sensor_id;sensor_type;location;lat;lon;timestamp;pressure;altitude;pressure_sealevel;temperature;humidity
36692;BME280;22678;52.052;4.242;2023-04-28T00:00:48;101401.19;;;11.15;47.05
36692;BME280;22678;52.052;4.242;2023-04-28T00:03:13;101392.41;;;11.10;46.98
36692;BME280;22678;52.052;4.242;2023-04-28T00:05:39;101393.31;;;11.12;47.25
36692;BME280;22678;52.052;4.242;2023-04-28T00:08:05;101383.66;;;11.06;47.71
36692;BME280;22678;52.052;4.242;2023-04-28T00:10:30;101388.06;;;11.09;47.67
36692;BME280;22678;52.052;4.242;2023-04-28T00:12:56;101388.03;;;11.05;47.90
36692;BME280;22678;52.052;4.242;2023-04-28T00:15:21;101387.19;;;10.97;48.27
36692;BME280;22678;52.052;4.242;2023-04-28T00:17:47;101372.25;;;10.98;48.28
36692;BME280;22678;52.052;4.242;2023-04-28T00:20:12;101367.00;;;10.96;48.61
36692;BME280;22678;52.052;4.242;2023-04-28T00:22:37;101359.09;;;10.99;48.53
36692;BME280;22678;52.052;4.242;2023-04-28T00:25:03;101342.47;;;10.93;48.96
36692;BME280;22678;52.052;4.242;2023-04-28T00:27:29;101346.81;;;10.92;48.89
36692;BME280;22678;52.052;4.242;2023-04-28T00:29:54;101344.19;;;10.89;49.21
36692;BME280;22678;52.052;4.242;2023-04-28T00:32:20;101344.19;;;10.94;49.13
36692;BME280;22678;52.052;4.242;2023-04-28T00:34:45;101345.09;;;10.91;48.81
36692;BME280;22678;52.052;4.242;2023-04-28T00:37:11;101332.81;;;10.87;49.08
36692;BME280;22678;52.052;4.242;2023-04-28T00:39:36;101325.78;;;10.81;49.28
36692;BME280;22678;52.052;4.242;2023-04-28T00:42:01;101323.16;;;10.86;49.13
36692;BME280;22678;52.052;4.242;2023-04-28T00:44:28;101303.88;;;10.75;49.11
36692;BME280;22678;52.052;4.242;2023-04-28T00:46:55;101313.50;;;10.82;49.26
36692;BME280;22678;52.052;4.242;2023-04-28T00:49:20;101310.00;;;10.80;49.18
36692;BME280;22678;52.052;4.242;2023-04-28T00:51:45;101315.28;;;10.80;49.43
36692;BME280;22678;52.052;4.242;2023-04-28T00:54:14;101301.25;;;10.78;49.12
36692;BME280;22678;52.052;4.242;2023-04-28T00:56:40;101310.88;;;10.80;49.23
36692;BME280;22678;52.052;4.242;2023-04-28T00:59:05;101300.34;;;10.80;49.36
36692;BME280;22678;52.052;4.242;2023-04-28T01:01:31;101295.13;;;10.74;49.48
36692;BME280;22678;52.052;4.242;2023-04-28T01:03:56;101299.50;;;10.80;49.55
36692;BME280;22678;52.052;4.242;2023-04-28T01:06:22;101283.72;;;10.72;49.59
36692;BME280;22678;52.052;4.242;2023-04-28T01:08:48;101278.47;;;10.74;49.60
36692;BME280;22678;52.052;4.242;2023-04-28T01:11:17;101270.56;;;10.72;49.75
36692;BME280;22678;52.052;4.242;2023-04-28T01:13:42;101272.31;;;10.73;49.79
36692;BME280;22678;52.052;4.242;2023-04-28T01:16:08;101264.44;;;10.65;49.65
36692;BME280;22678;52.052;4.242;2023-04-28T01:18:33;101274.94;;;10.70;49.67
36692;BME280;22678;52.052;4.242;2023-04-28T01:20:59;101259.19;;;10.62;49.88
36692;BME280;22678;52.052;4.242;2023-04-28T01:23:24;101277.59;;;10.68;50.23
36692;BME280;22678;52.052;4.242;2023-04-28T01:25:50;101277.59;;;10.65;50.11
36692;BME280;22678;52.052;4.242;2023-04-28T01:28:15;101261.81;;;10.64;50.29
36692;BME280;22678;52.052;4.242;2023-04-28T01:30:40;101253.91;;;10.67;50.27
36692;BME280;22678;52.052;4.242;2023-04-28T01:33:06;101246.91;;;10.64;50.49
36692;BME280;22678;52.052;4.242;2023-04-28T01:35:31;101252.16;;;10.61;50.66
36692;BME280;22678;52.052;4.242;2023-04-28T01:37:56;101245.19;;;10.60;50.80
36692;BME280;22678;52.052;4.242;2023-04-28T01:40:22;101247.81;;;10.62;50.85
36692;BME280;22678;52.052;4.242;2023-04-28T01:42:47;101239.94;;;10.54;50.89
36692;BME280;22678;52.052;4.242;2023-04-28T01:45:12;101227.66;;;10.50;50.77
36692;BME280;22678;52.052;4.242;2023-04-28T01:47:38;101234.66;;;10.54;50.75
36692;BME280;22678;52.052;4.242;2023-04-28T01:50:04;101206.63;;;10.47;50.95
36692;BME280;22678;52.052;4.242;2023-04-28T01:52:30;101211.88;;;10.51;50.86
36692;BME280;22678;52.052;4.242;2023-04-28T01:54:55;101208.38;;;10.45;51.15
36692;BME280;22678;52.052;4.242;2023-04-28T01:57:21;101204.88;;;10.43;50.94
36692;BME280;22678;52.052;4.242;2023-04-28T01:59:46;101223.28;;;10.44;51.30
36692;BME280;22678;52.052;4.242;2023-04-28T02:02:11;101212.78;;;10.40;51.23
36692;BME280;22678;52.052;4.242;2023-04-28T02:04:38;101206.63;;;10.34;51.25
36692;BME280;22678;52.052;4.242;2023-04-28T02:07:04;101215.41;;;10.38;50.97
36692;BME280;22678;52.052;4.242;2023-04-28T02:09:29;101227.66;;;10.36;50.98
36692;BME280;22678;52.052;4.242;2023-04-28T02:11:55;101210.13;;;10.27;50.94
36692;BME280;22678;52.052;4.242;2023-04-28T02:14:20;101201.34;;;10.28;51.37
36692;BME280;22678;52.052;4.242;2023-04-28T02:16:46;101203.97;;;10.30;51.10
36692;BME280;22678;52.052;4.242;2023-04-28T02:19:11;101206.59;;;10.31;51.20
36692;BME280;22678;52.052;4.242;2023-04-28T02:21:36;101201.34;;;10.31;51.36
36692;BME280;22678;52.052;4.242;2023-04-28T02:24:02;101203.13;;;10.32;51.38
36692;BME280;22678;52.052;4.242;2023-04-28T02:26:27;101190.84;;;10.22;51.05
36692;BME280;22678;52.052;4.242;2023-04-28T02:28:52;101184.72;;;10.31;51.39
36692;BME280;22678;52.052;4.242;2023-04-28T02:31:18;101178.59;;;10.23;51.15
36692;BME280;22678;52.052;4.242;2023-04-28T02:33:43;101166.31;;;10.20;51.48
36692;BME280;22678;52.052;4.242;2023-04-28T02:36:09;101182.09;;;10.28;51.46
36692;BME280;22678;52.052;4.242;2023-04-28T02:38:35;101187.34;;;10.32;51.24
36692;BME280;22678;52.052;4.242;2023-04-28T02:41:04;101177.69;;;10.31;51.39
36692;BME280;22678;52.052;4.242;2023-04-28T02:43:31;101184.75;;;10.34;51.39
36692;BME280;22678;52.052;4.242;2023-04-28T02:45:57;101176.00;;;10.33;51.31
36692;BME280;22678;52.052;4.242;2023-04-28T02:48:23;101171.59;;;10.26;51.51
36692;BME280;22678;52.052;4.242;2023-04-28T02:50:49;101171.59;;;10.26;51.48
36692;BME280;22678;52.052;4.242;2023-04-28T02:53:15;101174.22;;;10.29;51.52
36692;BME280;22678;52.052;4.242;2023-04-28T02:55:40;101161.94;;;10.25;51.80
36692;BME280;22678;52.052;4.242;2023-04-28T02:58:06;101163.69;;;10.26;51.87
36692;BME280;22678;52.052;4.242;2023-04-28T03:00:31;101145.31;;;10.23;51.92
36692;BME280;22678;52.052;4.242;2023-04-28T03:02:57;101147.03;;;10.21;51.67
36692;BME280;22678;52.052;4.242;2023-04-28T03:05:22;101154.06;;;10.19;52.08
36692;BME280;22678;52.052;4.242;2023-04-28T03:07:48;101159.31;;;10.25;52.01
36692;BME280;22678;52.052;4.242;2023-04-28T03:10:13;101141.78;;;10.18;52.36
36692;BME280;22678;52.052;4.242;2023-04-28T03:12:38;101138.28;;;10.22;52.31
36692;BME280;22678;52.052;4.242;2023-04-28T03:15:04;101132.16;;;10.15;52.25
36692;BME280;22678;52.052;4.242;2023-04-28T03:17:32;101131.28;;;10.18;52.36
36692;BME280;22678;52.052;4.242;2023-04-28T03:19:58;101130.44;;;10.13;52.47
36692;BME280;22678;52.052;4.242;2023-04-28T03:22:23;101113.78;;;10.05;52.42
36692;BME280;22678;52.052;4.242;2023-04-28T03:24:48;101128.66;;;10.15;52.58
36692;BME280;22678;52.052;4.242;2023-04-28T03:27:13;101119.03;;;10.08;52.62
36692;BME280;22678;52.052;4.242;2023-04-28T03:29:39;101119.91;;;10.14;52.61
36692;BME280;22678;52.052;4.242;2023-04-28T03:32:05;101113.78;;;10.08;52.83
36692;BME280;22678;52.052;4.242;2023-04-28T03:34:30;101122.53;;;10.07;53.09
36692;BME280;22678;52.052;4.242;2023-04-28T03:36:56;101126.94;;;10.08;53.03
36692;BME280;22678;52.052;4.242;2023-04-28T03:39:21;101096.28;;;9.94;53.33
36692;BME280;22678;52.052;4.242;2023-04-28T03:41:46;101102.44;;;10.03;53.59
36692;BME280;22678;52.052;4.242;2023-04-28T03:44:12;101082.28;;;9.98;53.83
36692;BME280;22678;52.052;4.242;2023-04-28T03:46:37;101083.16;;;9.97;54.26
36692;BME280;22678;52.052;4.242;2023-04-28T03:49:02;101071.78;;;9.95;53.98
36692;BME280;22678;52.052;4.242;2023-04-28T03:51:28;101085.78;;;9.97;54.12
36692;BME280;22678;52.052;4.242;2023-04-28T03:53:54;101077.91;;;9.93;54.46
36692;BME280;22678;52.052;4.242;2023-04-28T03:56:19;101070.03;;;9.90;54.38
36692;BME280;22678;52.052;4.242;2023-04-28T03:58:45;101082.28;;;9.95;54.53
36692;BME280;22678;52.052;4.242;2023-04-28T04:01:11;101068.28;;;9.87;54.77
36692;BME280;22678;52.052;4.242;2023-04-28T04:03:36;101075.28;;;9.88;54.75
36692;BME280;22678;52.052;4.242;2023-04-28T04:06:02;101064.78;;;9.88;54.96
36692;BME280;22678;52.052;4.242;2023-04-28T04:08:27;101060.41;;;9.84;54.95
36692;BME280;22678;52.052;4.242;2023-04-28T04:10:52;101070.06;;;9.85;55.08
36692;BME280;22678;52.052;4.242;2023-04-28T04:13:19;101084.94;;;9.92;55.38
36692;BME280;22678;52.052;4.242;2023-04-28T04:15:45;101071.78;;;9.80;55.41
36692;BME280;22678;52.052;4.242;2023-04-28T04:18:10;101077.91;;;9.91;55.63
36692;BME280;22678;52.052;4.242;2023-04-28T04:20:36;101085.81;;;9.85;56.07
36692;BME280;22678;52.052;4.242;2023-04-28T04:23:01;101091.06;;;9.85;56.67
36692;BME280;22678;52.052;4.242;2023-04-28T04:25:27;101087.53;;;9.86;56.79
36692;BME280;22678;52.052;4.242;2023-04-28T04:27:53;101098.94;;;9.84;57.54
36692;BME280;22678;52.052;4.242;2023-04-28T04:30:18;101105.94;;;9.78;57.95
36692;BME280;22678;52.052;4.242;2023-04-28T04:32:43;101101.56;;;9.73;58.26
36692;BME280;22678;52.052;4.242;2023-04-28T04:35:09;101094.56;;;9.69;58.59
36692;BME280;22678;52.052;4.242;2023-04-28T04:37:34;101094.56;;;9.73;59.09
36692;BME280;22678;52.052;4.242;2023-04-28T04:39:59;101087.56;;;9.71;59.69
36692;BME280;22678;52.052;4.242;2023-04-28T04:42:25;101081.41;;;9.69;59.92
36692;BME280;22678;52.052;4.242;2023-04-28T04:44:50;101078.81;;;9.72;60.39
36692;BME280;22678;52.052;4.242;2023-04-28T04:47:15;101081.44;;;9.65;60.70
36692;BME280;22678;52.052;4.242;2023-04-28T04:49:41;101078.78;;;9.69;61.06
36692;BME280;22678;52.052;4.242;2023-04-28T04:52:06;101071.81;;;9.63;61.40
36692;BME280;22678;52.052;4.242;2023-04-28T04:54:32;101068.31;;;9.59;61.68
36692;BME280;22678;52.052;4.242;2023-04-28T04:56:57;101066.56;;;9.55;61.73
36692;BME280;22678;52.052;4.242;2023-04-28T04:59:23;101068.31;;;9.56;62.20
36692;BME280;22678;52.052;4.242;2023-04-28T05:01:48;101062.22;;;9.51;62.76
36692;BME280;22678;52.052;4.242;2023-04-28T05:04:13;101037.69;;;9.44;63.25
36692;BME280;22678;52.052;4.242;2023-04-28T05:06:39;101032.44;;;9.40;63.63
36692;BME280;22678;52.052;4.242;2023-04-28T05:09:04;101043.81;;;9.36;64.17
36692;BME280;22678;52.052;4.242;2023-04-28T05:11:30;101026.31;;;9.25;64.84
36692;BME280;22678;52.052;4.242;2023-04-28T05:13:55;101042.94;;;9.26;65.27
36692;BME280;22678;52.052;4.242;2023-04-28T05:16:20;101038.56;;;9.20;65.99
36692;BME280;22678;52.052;4.242;2023-04-28T05:18:46;101019.31;;;9.09;66.31
36692;BME280;22678;52.052;4.242;2023-04-28T05:21:11;101022.81;;;9.11;66.76
36692;BME280;22678;52.052;4.242;2023-04-28T05:23:36;101021.09;;;9.07;67.14
36692;BME280;22678;52.052;4.242;2023-04-28T05:26:02;101011.44;;;9.01;67.53
36692;BME280;22678;52.052;4.242;2023-04-28T05:28:29;101021.94;;;9.01;68.06
36692;BME280;22678;52.052;4.242;2023-04-28T05:30:54;101021.94;;;8.98;68.83
36692;BME280;22678;52.052;4.242;2023-04-28T05:33:20;101021.03;;;8.94;69.03
36692;BME280;22678;52.052;4.242;2023-04-28T05:35:45;101027.16;;;8.95;69.63
36692;BME280;22678;52.052;4.242;2023-04-28T05:38:10;101026.28;;;8.91;69.96
36692;BME280;22678;52.052;4.242;2023-04-28T05:40:36;101038.53;;;8.92;70.41
36692;BME280;22678;52.052;4.242;2023-04-28T05:43:01;101022.78;;;8.85;70.67
36692;BME280;22678;52.052;4.242;2023-04-28T05:45:26;101044.66;;;8.94;71.13
36692;BME280;22678;52.052;4.242;2023-04-28T05:47:52;101045.50;;;8.90;71.49
36692;BME280;22678;52.052;4.242;2023-04-28T05:50:17;101037.66;;;8.89;71.65
36692;BME280;22678;52.052;4.242;2023-04-28T05:52:42;101039.41;;;8.88;71.75
36692;BME280;22678;52.052;4.242;2023-04-28T05:55:08;101047.28;;;8.94;72.06
36692;BME280;22678;52.052;4.242;2023-04-28T05:57:33;101031.53;;;8.91;72.16
36692;BME280;22678;52.052;4.242;2023-04-28T05:59:59;101015.78;;;8.79;72.49
36692;BME280;22678;52.052;4.242;2023-04-28T06:02:24;101043.78;;;9.02;72.57
36692;BME280;22678;52.052;4.242;2023-04-28T06:04:50;101043.78;;;8.99;72.61
36692;BME280;22678;52.052;4.242;2023-04-28T06:07:15;101042.94;;;9.00;73.24
36692;BME280;22678;52.052;4.242;2023-04-28T06:09:40;101003.53;;;8.73;73.35
36692;BME280;22678;52.052;4.242;2023-04-28T06:12:06;101032.41;;;8.95;73.56
36692;BME280;22678;52.052;4.242;2023-04-28T06:14:31;101022.81;;;8.96;73.73
36692;BME280;22678;52.052;4.242;2023-04-28T06:16:57;101026.28;;;9.04;74.18
36692;BME280;22678;52.052;4.242;2023-04-28T06:19:22;101016.69;;;9.01;74.54
36692;BME280;22678;52.052;4.242;2023-04-28T06:21:48;101008.84;;;9.00;75.00
36692;BME280;22678;52.052;4.242;2023-04-28T06:24:17;101006.22;;;9.04;75.19
36692;BME280;22678;52.052;4.242;2023-04-28T06:26:42;101020.22;;;9.17;75.26
36692;BME280;22678;52.052;4.242;2023-04-28T06:29:07;101011.44;;;9.24;75.43
36692;BME280;22678;52.052;4.242;2023-04-28T06:31:33;101014.09;;;9.32;75.90
36692;BME280;22678;52.052;4.242;2023-04-28T06:33:58;101019.34;;;9.34;76.10
36692;BME280;22678;52.052;4.242;2023-04-28T06:36:23;101008.84;;;9.31;76.24
36692;BME280;22678;52.052;4.242;2023-04-28T06:38:48;101021.06;;;9.28;76.64
36692;BME280;22678;52.052;4.242;2023-04-28T06:41:14;101015.81;;;9.28;77.33
36692;BME280;22678;52.052;4.242;2023-04-28T06:43:39;101014.09;;;9.31;77.81
36692;BME280;22678;52.052;4.242;2023-04-28T06:46:05;101027.22;;;9.31;78.00
36692;BME280;22678;52.052;4.242;2023-04-28T06:48:31;101027.22;;;9.29;78.54
36692;BME280;22678;52.052;4.242;2023-04-28T06:50:56;101019.34;;;9.31;79.12
36692;BME280;22678;52.052;4.242;2023-04-28T06:53:21;101027.19;;;9.38;79.52
36692;BME280;22678;52.052;4.242;2023-04-28T06:55:46;101017.56;;;9.36;79.92
36692;BME280;22678;52.052;4.242;2023-04-28T06:58:12;101008.84;;;9.37;80.26
36692;BME280;22678;52.052;4.242;2023-04-28T07:00:37;101016.69;;;9.46;80.62
36692;BME280;22678;52.052;4.242;2023-04-28T07:03:03;101015.81;;;9.49;81.49
36692;BME280;22678;52.052;4.242;2023-04-28T07:05:28;101007.94;;;9.52;81.80
36692;BME280;22678;52.052;4.242;2023-04-28T07:07:54;100999.19;;;9.59;82.40
36692;BME280;22678;52.052;4.242;2023-04-28T07:10:19;101002.66;;;9.61;82.60
36692;BME280;22678;52.052;4.242;2023-04-28T07:12:44;101008.78;;;9.68;82.87
36692;BME280;22678;52.052;4.242;2023-04-28T07:15:10;101011.38;;;9.80;83.44
36692;BME280;22678;52.052;4.242;2023-04-28T07:17:36;101017.50;;;9.85;83.55
36692;BME280;22678;52.052;4.242;2023-04-28T07:20:02;101016.59;;;9.88;83.79
36692;BME280;22678;52.052;4.242;2023-04-28T07:22:28;101003.47;;;9.89;83.99
36692;BME280;22678;52.052;4.242;2023-04-28T07:24:53;101003.50;;;9.92;84.19
36692;BME280;22678;52.052;4.242;2023-04-28T07:27:19;101012.22;;;9.97;84.80
36692;BME280;22678;52.052;4.242;2023-04-28T07:29:44;101008.69;;;10.03;85.23
36692;BME280;22678;52.052;4.242;2023-04-28T07:32:09;101011.31;;;10.06;85.43
36692;BME280;22678;52.052;4.242;2023-04-28T07:34:35;101013.91;;;10.11;85.93
36692;BME280;22678;52.052;4.242;2023-04-28T07:37:02;101004.28;;;10.10;86.44
36692;BME280;22678;52.052;4.242;2023-04-28T07:39:27;101010.41;;;10.15;86.88
36692;BME280;22678;52.052;4.242;2023-04-28T07:41:53;101007.75;;;10.20;86.92
36692;BME280;22678;52.052;4.242;2023-04-28T07:44:18;101006.88;;;10.22;87.38
36692;BME280;22678;52.052;4.242;2023-04-28T07:46:43;101008.63;;;10.26;87.76
36692;BME280;22678;52.052;4.242;2023-04-28T07:49:09;101015.56;;;10.32;88.11
36692;BME280;22678;52.052;4.242;2023-04-28T07:51:34;101010.34;;;10.30;88.20
36692;BME280;22678;52.052;4.242;2023-04-28T07:53:59;101015.63;;;10.33;88.51
36692;BME280;22678;52.052;4.242;2023-04-28T07:56:25;101021.72;;;10.42;88.93
36692;BME280;22678;52.052;4.242;2023-04-28T07:58:51;101016.47;;;10.40;89.13
36692;BME280;22678;52.052;4.242;2023-04-28T08:01:16;101027.84;;;10.48;89.65
36692;BME280;22678;52.052;4.242;2023-04-28T08:03:42;101016.44;;;10.46;89.76
36692;BME280;22678;52.052;4.242;2023-04-28T08:06:07;101006.78;;;10.50;90.24
36692;BME280;22678;52.052;4.242;2023-04-28T08:08:33;101019.03;;;10.52;90.57
36692;BME280;22678;52.052;4.242;2023-04-28T08:10:59;101014.66;;;10.55;91.19
36692;BME280;22678;52.052;4.242;2023-04-28T08:13:24;101011.13;;;10.59;91.05
36692;BME280;22678;52.052;4.242;2023-04-28T08:15:49;101011.97;;;10.62;91.89
36692;BME280;22678;52.052;4.242;2023-04-28T08:18:15;101014.53;;;10.70;92.09
36692;BME280;22678;52.052;4.242;2023-04-28T08:20:40;101023.28;;;10.77;92.44
36692;BME280;22678;52.052;4.242;2023-04-28T08:23:07;101014.50;;;10.79;92.82
36692;BME280;22678;52.052;4.242;2023-04-28T08:25:32;101010.94;;;10.90;93.09
36692;BME280;22678;52.052;4.242;2023-04-28T08:27:58;101010.00;;;11.00;93.56
36692;BME280;22678;52.052;4.242;2023-04-28T08:30:23;101012.59;;;11.04;94.08
36692;BME280;22678;52.052;4.242;2023-04-28T08:32:48;101015.16;;;11.12;94.71
36692;BME280;22678;52.052;4.242;2023-04-28T08:35:14;101012.44;;;11.20;94.81
36692;BME280;22678;52.052;4.242;2023-04-28T08:37:40;101009.78;;;11.23;95.05
36692;BME280;22678;52.052;4.242;2023-04-28T08:40:06;101001.00;;;11.26;95.56
36692;BME280;22678;52.052;4.242;2023-04-28T08:42:35;100997.44;;;11.31;95.72
36692;BME280;22678;52.052;4.242;2023-04-28T08:45:02;101000.91;;;11.39;96.25
36692;BME280;22678;52.052;4.242;2023-04-28T08:47:34;101006.00;;;11.53;96.60
36692;BME280;22678;52.052;4.242;2023-04-28T08:50:04;101003.28;;;11.63;96.74
36692;BME280;22678;52.052;4.242;2023-04-28T08:52:30;101004.09;;;11.71;97.08
36692;BME280;22678;52.052;4.242;2023-04-28T08:55:00;101002.25;;;11.78;97.42
36692;BME280;22678;52.052;4.242;2023-04-28T08:57:29;101003.00;;;11.89;97.35
36692;BME280;22678;52.052;4.242;2023-04-28T08:59:59;101000.34;;;11.94;97.71
36692;BME280;22678;52.052;4.242;2023-04-28T09:02:24;100998.50;;;12.03;97.88
36692;BME280;22678;52.052;4.242;2023-04-28T09:04:50;100993.16;;;12.09;98.24
36692;BME280;22678;52.052;4.242;2023-04-28T09:07:15;100982.53;;;12.16;98.12
36692;BME280;22678;52.052;4.242;2023-04-28T09:09:41;100981.53;;;12.24;98.42
36692;BME280;22678;52.052;4.242;2023-04-28T09:12:06;100982.38;;;12.30;98.51
36692;BME280;22678;52.052;4.242;2023-04-28T09:14:34;100984.88;;;12.37;98.43
36692;BME280;22678;52.052;4.242;2023-04-28T09:17:11;100992.69;;;12.45;98.63
36692;BME280;22678;52.052;4.242;2023-04-28T09:19:37;100992.63;;;12.50;98.79
36692;BME280;22678;52.052;4.242;2023-04-28T09:22:04;100985.63;;;12.49;98.78
36692;BME280;22678;52.052;4.242;2023-04-28T09:24:39;100979.47;;;12.48;98.84
36692;BME280;22678;52.052;4.242;2023-04-28T09:27:07;100999.56;;;12.57;99.05
36692;BME280;22678;52.052;4.242;2023-04-28T09:29:36;100990.75;;;12.58;99.62
36692;BME280;22678;52.052;4.242;2023-04-28T09:32:15;100992.50;;;12.60;99.67
36692;BME280;22678;52.052;4.242;2023-04-28T09:34:46;101000.38;;;12.62;99.85
36692;BME280;22678;52.052;4.242;2023-04-28T09:37:16;100997.69;;;12.65;100.00
36692;BME280;22678;52.052;4.242;2023-04-28T09:39:46;100995.91;;;12.67;100.00
36692;BME280;22678;52.052;4.242;2023-04-28T09:42:34;100997.69;;;12.65;100.00
36692;BME280;22678;52.052;4.242;2023-04-28T09:45:10;101011.75;;;12.66;100.00
36692;BME280;22678;52.052;4.242;2023-04-28T09:47:38;100998.66;;;12.59;100.00
36692;BME280;22678;52.052;4.242;2023-04-28T09:50:08;100996.06;;;12.56;100.00
36692;BME280;22678;52.052;4.242;2023-04-28T09:52:36;101001.41;;;12.52;100.00
36692;BME280;22678;52.052;4.242;2023-04-28T09:55:03;101013.69;;;12.53;100.00
36692;BME280;22678;52.052;4.242;2023-04-28T09:57:31;101010.22;;;12.51;100.00
36692;BME280;22678;52.052;4.242;2023-04-28T09:59:57;101012.88;;;12.49;100.00
36692;BME280;22678;52.052;4.242;2023-04-28T10:02:24;101001.50;;;12.46;100.00
36692;BME280;22678;52.052;4.242;2023-04-28T10:04:50;100998.06;;;12.39;100.00
36692;BME280;22678;52.052;4.242;2023-04-28T10:07:17;101012.00;;;12.49;100.00
36692;BME280;22678;52.052;4.242;2023-04-28T10:09:45;100997.19;;;12.38;100.00
36692;BME280;22678;52.052;4.242;2023-04-28T10:12:14;101005.06;;;12.41;100.00
36692;BME280;22678;52.052;4.242;2023-04-28T10:14:41;101012.09;;;12.41;100.00
36692;BME280;22678;52.052;4.242;2023-04-28T10:17:07;101018.28;;;12.38;100.00
36692;BME280;22678;52.052;4.242;2023-04-28T10:19:33;101007.75;;;12.37;100.00
36692;BME280;22678;52.052;4.242;2023-04-28T10:27:36;101017.34;;;12.42;100.00
36692;BME280;22678;52.052;4.242;2023-04-28T10:30:09;101018.22;;;12.44;100.00
36692;BME280;22678;52.052;4.242;2023-04-28T10:32:36;101024.31;;;12.48;100.00
36692;BME280;22678;52.052;4.242;2023-04-28T10:38:08;101032.16;;;12.53;100.00
36692;BME280;22678;52.052;4.242;2023-04-28T10:40:34;101028.59;;;12.55;100.00
36692;BME280;22678;52.052;4.242;2023-04-28T10:43:00;101027.75;;;12.55;100.00
36692;BME280;22678;52.052;4.242;2023-04-28T10:48:20;101019.03;;;12.48;100.00
36692;BME280;22678;52.052;4.242;2023-04-28T10:56:14;101032.13;;;12.54;100.00
36692;BME280;22678;52.052;4.242;2023-04-28T10:58:41;101032.16;;;12.53;100.00
36692;BME280;22678;52.052;4.242;2023-04-28T11:06:24;101033.78;;;12.63;100.00
36692;BME280;22678;52.052;4.242;2023-04-28T11:08:51;101026.78;;;12.60;100.00
36692;BME280;22678;52.052;4.242;2023-04-28T11:11:18;101031.19;;;12.60;100.00
36692;BME280;22678;52.052;4.242;2023-04-28T11:13:44;101037.31;;;12.62;100.00
36692;BME280;22678;52.052;4.242;2023-04-28T11:16:17;101039.00;;;12.68;100.00
36692;BME280;22678;52.052;4.242;2023-04-28T11:18:50;101036.34;;;12.69;100.00
36692;BME280;22678;52.052;4.242;2023-04-28T11:21:17;101040.72;;;12.69;100.00
36692;BME280;22678;52.052;4.242;2023-04-28T11:23:43;101046.78;;;12.78;100.00
36692;BME280;22678;52.052;4.242;2023-04-28T11:26:09;101036.22;;;12.77;100.00
36692;BME280;22678;52.052;4.242;2023-04-28T11:28:34;101034.47;;;12.76;100.00
36692;BME280;22678;52.052;4.242;2023-04-28T11:31:11;101036.25;;;12.75;100.00
36692;BME280;22678;52.052;4.242;2023-04-28T11:33:37;101036.22;;;12.78;100.00
36692;BME280;22678;52.052;4.242;2023-04-28T11:36:04;101044.06;;;12.83;100.00
36692;BME280;22678;52.052;4.242;2023-04-28T11:38:29;101046.63;;;12.88;100.00
36692;BME280;22678;52.052;4.242;2023-04-28T11:40:58;101043.16;;;12.86;100.00
36692;BME280;22678;52.052;4.242;2023-04-28T11:43:29;101039.56;;;12.90;100.00
36692;BME280;22678;52.052;4.242;2023-04-28T11:45:55;101045.72;;;12.90;100.00
36692;BME280;22678;52.052;4.242;2023-04-28T11:48:21;101059.69;;;12.99;100.00
36692;BME280;22678;52.052;4.242;2023-04-28T11:50:47;101036.88;;;12.93;100.00
36692;BME280;22678;52.052;4.242;2023-04-28T11:53:12;101052.56;;;13.04;100.00
36692;BME280;22678;52.052;4.242;2023-04-28T11:55:37;101062.16;;;13.09;100.00
36692;BME280;22678;52.052;4.242;2023-04-28T11:58:21;101058.47;;;13.20;100.00
36692;BME280;22678;52.052;4.242;2023-04-28T12:01:11;101060.09;;;13.28;100.00
36692;BME280;22678;52.052;4.242;2023-04-28T12:03:44;101065.28;;;13.36;100.00
36692;BME280;22678;52.052;4.242;2023-04-28T12:06:10;101061.75;;;13.37;100.00
36692;BME280;22678;52.052;4.242;2023-04-28T12:08:35;101052.84;;;13.44;100.00
36692;BME280;22678;52.052;4.242;2023-04-28T12:11:08;101070.28;;;13.55;100.00
36692;BME280;22678;52.052;4.242;2023-04-28T12:13:35;101060.53;;;13.57;100.00
36692;BME280;22678;52.052;4.242;2023-04-28T12:16:01;101058.75;;;13.57;100.00
36692;BME280;22678;52.052;4.242;2023-04-28T12:18:28;101071.13;;;13.55;100.00
36692;BME280;22678;52.052;4.242;2023-04-28T12:20:53;101059.78;;;13.52;100.00
36692;BME280;22678;52.052;4.242;2023-04-28T12:23:32;101060.59;;;13.54;100.00
36692;BME280;22678;52.052;4.242;2023-04-28T12:25:57;101076.38;;;13.58;100.00
36692;BME280;22678;52.052;4.242;2023-04-28T12:28:35;101076.28;;;13.63;100.00
36692;BME280;22678;52.052;4.242;2023-04-28T12:31:03;101073.59;;;13.66;100.00
36692;BME280;22678;52.052;4.242;2023-04-28T12:33:29;101068.34;;;13.63;100.00
36692;BME280;22678;52.052;4.242;2023-04-28T12:35:55;101079.78;;;13.66;100.00
36692;BME280;22678;52.052;4.242;2023-04-28T12:38:22;101089.44;;;13.66;100.00
36692;BME280;22678;52.052;4.242;2023-04-28T12:40:47;101076.31;;;13.61;100.00
36692;BME280;22678;52.052;4.242;2023-04-28T12:43:12;101083.38;;;13.61;100.00
36692;BME280;22678;52.052;4.242;2023-04-28T12:45:37;101038.09;;;13.28;100.00
36692;BME280;22678;52.052;4.242;2023-04-28T12:48:03;101097.63;;;13.52;100.00
36692;BME280;22678;52.052;4.242;2023-04-28T12:50:28;101081.09;;;13.39;100.00
36692;BME280;22678;52.052;4.242;2023-04-28T12:52:57;101089.91;;;13.38;100.00
36692;BME280;22678;52.052;4.242;2023-04-28T12:55:22;101101.34;;;13.40;100.00
36692;BME280;22678;52.052;4.242;2023-04-28T12:57:48;101095.06;;;13.47;100.00
36692;BME280;22678;52.052;4.242;2023-04-28T13:00:13;101100.22;;;13.54;100.00
36692;BME280;22678;52.052;4.242;2023-04-28T13:02:45;101093.13;;;13.57;100.00
36692;BME280;22678;52.052;4.242;2023-04-28T13:05:10;101089.44;;;13.66;100.00
36692;BME280;22678;52.052;4.242;2023-04-28T13:07:36;101097.31;;;13.71;100.00